Time;durP1;ratioP1;P1;durP2;ratioP2;P2;SDS_P1;SDS_P2;PMS_P1;PMS_P2;Temp;Humidity;BMP_temperature;BMP_pressure;BME280_temperature;BME280_humidity;BME280_pressure;Samples;Min_cycle;Max_cycle;Signal;HPM_P1;HPM_P2
2022/05/25 00:01:12;;;;;;;34.85;11.32;;;;;;;;;;5132596;27;20052;-63
2022/05/25 00:03:39;;;;;;;41.95;12.50;;;;;;;;;;5131650;27;20041;-63
2022/05/25 00:06:07;;;;;;;30.45;11.63;;;;;;;;;;5131530;27;20503;-63
2022/05/25 00:08:37;;;;;;;36.05;10.95;;;;;;;;;;5131601;27;20075;-64
2022/05/25 00:11:03;;;;;;;46.85;12.95;;;;;;;;;;5131547;27;20038;-63
2022/05/25 00:13:30;;;;;;;35.58;11.80;;;;;;;;;;5131933;27;20447;-63
2022/05/25 00:15:56;;;;;;;42.67;11.68;;;;;;;;;;5130112;27;20072;-63
2022/05/25 00:18:23;;;;;;;49.78;13.07;;;;;;;;;;5131013;27;20047;-63
2022/05/25 00:20:50;;;;;;;31.35;10.73;;;;;;;;;;5131167;27;20057;-63
2022/05/25 00:23:16;;;;;;;43.92;12.57;;;;;;;;;;5131444;27;20032;-63
2022/05/25 00:25:43;;;;;;;42.50;11.90;;;;;;;;;;5132784;27;20043;-63
2022/05/25 00:28:14;;;;;;;40.92;13.02;;;;;;;;;;5136707;27;20043;-63
2022/05/25 00:30:42;;;;;;;35.35;10.85;;;;;;;;;;5135962;27;20073;-64
2022/05/25 00:33:08;;;;;;;41.63;12.50;;;;;;;;;;5135383;27;20467;-63
2022/05/25 00:35:36;;;;;;;28.38;11.57;;;;;;;;;;5135854;27;20051;-63
2022/05/25 00:38:03;;;;;;;28.95;11.25;;;;;;;;;;5135949;27;20039;-63
2022/05/25 00:40:34;;;;;;;42.58;12.68;;;;;;;;;;5136276;27;20688;-63
2022/05/25 00:43:01;;;;;;;28.10;11.48;;;;;;;;;;5136478;27;20504;-64
2022/05/25 00:45:30;;;;;;;37.25;11.52;;;;;;;;;;5135009;27;20042;-63
2022/05/25 00:47:56;;;;;;;33.17;11.13;;;;;;;;;;5134984;27;20043;-63
2022/05/25 00:50:23;;;;;;;32.13;11.35;;;;;;;;;;5133474;27;20416;-63
2022/05/25 00:52:50;;;;;;;33.25;11.60;;;;;;;;;;5134742;27;20708;-63
2022/05/25 00:55:26;;;;;;;32.45;11.40;;;;;;;;;;5124586;27;20036;-63
2022/05/25 00:57:56;;;;;;;22.77;11.23;;;;;;;;;;5135110;27;20045;-63
2022/05/25 01:00:24;;;;;;;35.80;11.45;;;;;;;;;;5135070;27;20096;-63
2022/05/25 01:02:58;;;;;;;28.45;10.82;;;;;;;;;;5134934;27;20046;-63
2022/05/25 01:05:29;;;;;;;29.58;10.07;;;;;;;;;;5122618;27;20114;-63
2022/05/25 01:07:56;;;;;;;36.60;10.82;;;;;;;;;;5135178;27;20045;-63
2022/05/25 01:10:37;;;;;;;32.28;9.73;;;;;;;;;;5135811;27;20554;-63
2022/05/25 01:13:07;;;;;;;35.20;10.38;;;;;;;;;;5134473;27;20476;-63
2022/05/25 01:15:54;;;;;;;28.33;10.63;;;;;;;;;;5134461;27;20099;-64
2022/05/25 01:18:24;;;;;;;41.92;12.63;;;;;;;;;;5134365;27;20035;-63
2022/05/25 01:21:12;;;;;;;29.55;10.30;;;;;;;;;;5135001;27;20054;-62
2022/05/25 01:23:52;;;;;;;28.92;10.45;;;;;;;;;;5134805;27;20567;-63
2022/05/25 01:26:45;;;;;;;28.23;10.85;;;;;;;;;;5134765;27;20059;-63
2022/05/25 01:29:37;;;;;;;41.50;12.02;;;;;;;;;;5130999;27;20051;-63
2022/05/25 01:32:15;;;;;;;39.97;12.05;;;;;;;;;;5134122;27;20058;-63
2022/05/25 01:34:45;;;;;;;42.00;12.27;;;;;;;;;;5134694;27;20522;-64
2022/05/25 01:37:15;;;;;;;34.85;11.88;;;;;;;;;;5135122;27;20091;-63
2022/05/25 01:39:48;;;;;;;38.03;11.02;;;;;;;;;;5134611;27;20035;-63
2022/05/25 01:42:15;;;;;;;;;;;;;;;;;;5134853;27;20043;-63
2022/05/25 01:44:44;;;;;;;35.45;12.38;;;;;;;;;;5135001;27;20435;-64
2022/05/25 01:47:11;;;;;;;41.13;12.10;;;;;;;;;;5133732;27;20042;-64
2022/05/25 01:49:45;;;;;;;40.42;12.48;;;;;;;;;;5134345;27;20039;-63
2022/05/25 01:52:15;;;;;;;36.15;12.32;;;;;;;;;;5131116;27;20542;-63
2022/05/25 01:54:46;;;;;;;31.80;11.05;;;;;;;;;;5131732;27;20050;-63
2022/05/25 01:57:13;;;;;;;38.47;11.70;;;;;;;;;;5132617;27;20461;-63
2022/05/25 01:59:41;;;;;;;34.60;12.48;;;;;;;;;;5134172;27;20039;-63
2022/05/25 02:04:56;;;;;;;45.10;12.70;;;;;;;;;;5134082;27;20050;-63
2022/05/25 02:07:42;;;;;;;39.20;12.70;;;;;;;;;;5135198;27;20560;-63
2022/05/25 02:10:14;;;;;;;32.22;11.55;;;;;;;;;;5134329;27;20043;-63
2022/05/25 02:13:06;;;;;;;35.05;12.30;;;;;;;;;;5124438;27;20371;-63
2022/05/25 02:15:51;;;;;;;30.63;12.10;;;;;;;;;;5129938;27;20118;-63
2022/05/25 02:18:21;;;;;;;33.72;12.02;;;;;;;;;;5133648;27;20036;-64
2022/05/25 02:20:51;;;;;;;28.10;10.82;;;;;;;;;;5133447;27;20389;-64
2022/05/25 02:23:20;;;;;;;37.97;12.93;;;;;;;;;;5133726;27;20039;-63
2022/05/25 02:25:49;;;;;;;33.25;12.57;;;;;;;;;;5133887;27;20043;-63
2022/05/25 02:28:28;;;;;;;33.67;12.90;;;;;;;;;;5134503;27;20049;-63
2022/05/25 02:30:56;;;;;;;37.53;13.48;;;;;;;;;;5132700;27;20496;-63
2022/05/25 02:33:29;;;;;;;25.95;12.70;;;;;;;;;;5133322;27;20046;-63
2022/05/25 02:35:57;;;;;;;34.30;12.48;;;;;;;;;;5133123;27;20126;-63
2022/05/25 02:38:24;;;;;;;35.45;14.25;;;;;;;;;;5133898;27;20138;-63
2022/05/25 02:40:50;;;;;;;43.95;15.10;;;;;;;;;;5133438;27;20076;-63
2022/05/25 02:43:22;;;;;;;55.67;15.57;;;;;;;;;;5132656;27;20113;-64
2022/05/25 02:45:49;;;;;;;35.80;13.27;;;;;;;;;;5132936;27;20117;-63
2022/05/25 02:48:15;;;;;;;38.42;15.63;;;;;;;;;;5132656;27;20037;-63
2022/05/25 02:50:42;;;;;;;39.30;14.27;;;;;;;;;;5133158;27;20156;-63
2022/05/25 02:53:11;;;;;;;36.45;14.98;;;;;;;;;;5131332;27;20047;-63
2022/05/25 02:55:38;;;;;;;38.80;15.05;;;;;;;;;;5133235;27;20043;-64
2022/05/25 02:58:05;;;;;;;43.67;15.50;;;;;;;;;;5133257;27;20054;-63
2022/05/25 03:00:31;;;;;;;32.47;13.98;;;;;;;;;;5132573;27;20040;-64
2022/05/25 03:02:58;;;;;;;37.70;14.68;;;;;;;;;;5132999;27;20400;-63
2022/05/25 03:05:25;;;;;;;40.95;14.48;;;;;;;;;;5132926;27;20435;-63
2022/05/25 03:07:51;;;;;;;40.63;13.57;;;;;;;;;;5132816;27;20050;-63
2022/05/25 03:10:18;;;;;;;32.97;14.05;;;;;;;;;;5133400;27;20047;-63
2022/05/25 03:12:44;;;;;;;56.47;16.00;;;;;;;;;;5131859;27;20126;-63
2022/05/25 03:15:11;;;;;;;45.35;14.75;;;;;;;;;;5132141;27;20104;-63
2022/05/25 03:17:37;;;;;;;32.75;13.65;;;;;;;;;;5132636;27;20067;-63
2022/05/25 03:20:04;;;;;;;52.15;15.15;;;;;;;;;;5132395;27;20070;-63
2022/05/25 03:22:34;;;;;;;35.85;14.43;;;;;;;;;;5132576;27;20412;-63
2022/05/25 03:25:00;;;;;;;35.15;14.07;;;;;;;;;;5132370;27;20042;-64
2022/05/25 03:27:27;;;;;;;36.60;14.85;;;;;;;;;;5132423;27;20047;-63
2022/05/25 03:29:53;;;;;;;47.05;14.45;;;;;;;;;;5131884;27;20058;-63
2022/05/25 03:32:20;;;;;;;35.92;13.95;;;;;;;;;;5132893;27;20034;-64
2022/05/25 03:34:47;;;;;;;50.85;15.65;;;;;;;;;;5132095;27;20046;-63
2022/05/25 03:37:14;;;;;;;52.15;15.57;;;;;;;;;;5132970;27;20035;-63
2022/05/25 03:39:41;;;;;;;29.95;12.45;;;;;;;;;;5132163;27;20062;-63
2022/05/25 03:42:07;;;;;;;43.80;14.60;;;;;;;;;;5131715;27;20050;-63
2022/05/25 03:44:35;;;;;;;32.92;14.07;;;;;;;;;;5132661;27;20031;-63
2022/05/25 03:47:02;;;;;;;33.95;13.68;;;;;;;;;;5130694;27;20035;-63
2022/05/25 03:49:28;;;;;;;37.05;14.35;;;;;;;;;;5120124;27;20074;-63
2022/05/25 03:51:55;;;;;;;31.25;13.90;;;;;;;;;;5132220;27;20043;-63
2022/05/25 03:54:21;;;;;;;41.90;15.25;;;;;;;;;;5131323;27;20082;-63
2022/05/25 03:56:48;;;;;;;48.38;15.45;;;;;;;;;;5131013;27;20043;-63
2022/05/25 03:59:15;;;;;;;43.17;14.38;;;;;;;;;;5118640;27;20463;-63
2022/05/25 04:01:41;;;;;;;46.47;14.77;;;;;;;;;;5131033;27;20039;-64
2022/05/25 04:04:08;;;;;;;31.98;14.25;;;;;;;;;;5132338;27;20370;-63
2022/05/25 04:06:34;;;;;;;49.80;15.40;;;;;;;;;;5131521;27;20047;-63
2022/05/25 04:09:02;;;;;;;32.40;12.85;;;;;;;;;;5131809;27;20037;-63
2022/05/25 04:11:28;;;;;;;39.30;14.48;;;;;;;;;;5131556;27;20139;-63
2022/05/25 04:13:55;;;;;;;53.38;14.85;;;;;;;;;;5131639;27;20121;-63
2022/05/25 04:16:21;;;;;;;35.22;13.95;;;;;;;;;;5132302;27;20140;-63
2022/05/25 04:18:48;;;;;;;30.98;13.93;;;;;;;;;;5131344;27;20507;-63
2022/05/25 04:21:14;;;;;;;42.00;14.88;;;;;;;;;;5131462;27;20043;-63
2022/05/25 04:23:41;;;;;;;28.80;13.88;;;;;;;;;;5131739;27;20096;-63
2022/05/25 04:26:08;;;;;;;46.60;14.32;;;;;;;;;;5131137;27;20042;-63
2022/05/25 04:28:34;;;;;;;43.58;15.18;;;;;;;;;;5131710;27;20046;-63
2022/05/25 04:31:01;;;;;;;48.00;14.13;;;;;;;;;;5131609;27;20066;-63
2022/05/25 04:33:29;;;;;;;35.55;12.98;;;;;;;;;;5130749;27;20043;-64
2022/05/25 04:35:56;;;;;;;36.40;13.73;;;;;;;;;;5131332;27;20044;-63
2022/05/25 04:38:22;;;;;;;30.65;12.93;;;;;;;;;;5131627;28;20033;-63
2022/05/25 04:40:49;;;;;;;47.65;14.68;;;;;;;;;;5131285;27;20572;-63
2022/05/25 04:43:19;;;;;;;58.28;16.33;;;;;;;;;;5131961;27;20039;-63
2022/05/25 04:45:47;;;;;;;29.77;13.90;;;;;;;;;;5131642;27;20084;-64
2022/05/25 04:48:14;;;;;;;38.58;14.38;;;;;;;;;;5129283;27;20043;-63
2022/05/25 04:50:42;;;;;;;47.08;15.15;;;;;;;;;;5120246;28;20035;-63
2022/05/25 04:53:10;;;;;;;30.88;13.10;;;;;;;;;;5131102;27;20134;-63
2022/05/25 04:58:26;;;;;;;32.00;12.70;;;;;;;;;;5120572;28;20075;-63
2022/05/25 05:00:53;;;;;;;42.03;12.18;;;;;;;;;;5130320;28;20118;-65
2022/05/25 05:03:20;;;;;;;34.13;13.02;;;;;;;;;;5131063;28;20544;-63
2022/05/25 05:05:47;;;;;;;23.25;11.63;;;;;;;;;;5131202;27;20041;-63
2022/05/25 05:08:14;;;;;;;43.58;13.32;;;;;;;;;;5131575;27;20070;-63
2022/05/25 05:10:41;;;;;;;49.63;17.90;;;;;;;;;;5131127;27;20097;-63
2022/05/25 05:13:07;;;;;;;56.05;24.17;;;;;;;;;;5135158;27;20069;-63
2022/05/25 05:15:35;;;;;;;37.03;13.73;;;;;;;;;;5134672;27;20122;-62
2022/05/25 05:18:02;;;;;;;40.30;12.77;;;;;;;;;;5134765;27;20039;-63
2022/05/25 05:20:51;;;;;;;32.40;12.10;;;;;;;;;;5129411;27;20049;-62
2022/05/25 05:23:18;;;;;;;45.95;13.57;;;;;;;;;;5134470;27;20110;-63
2022/05/25 05:25:44;;;;;;;43.30;13.38;;;;;;;;;;5134851;27;20070;-64
2022/05/25 05:28:15;;;;;;;43.40;12.43;;;;;;;;;;5135405;27;20043;-63
2022/05/25 05:30:45;;;;;;;33.33;11.35;;;;;;;;;;5134730;27;20071;-63
2022/05/25 05:33:18;;;;;;;30.75;10.20;;;;;;;;;;5135111;27;20043;-63
2022/05/25 05:35:46;;;;;;;38.40;11.27;;;;;;;;;;5134292;27;20042;-63
2022/05/25 05:38:13;;;;;;;33.13;10.95;;;;;;;;;;5134484;27;20031;-63
2022/05/25 05:40:40;;;;;;;69.40;36.53;;;;;;;;;;5134734;27;20047;-63
2022/05/25 05:43:07;;;;;;;31.95;11.30;;;;;;;;;;5135015;27;20088;-64
2022/05/25 05:45:36;;;;;;;36.70;11.77;;;;;;;;;;5134077;27;20039;-63
2022/05/25 05:48:20;;;;;;;38.83;11.88;;;;;;;;;;5127899;27;20087;-63
2022/05/25 05:50:48;;;;;;;36.47;11.10;;;;;;;;;;5133968;27;20049;-63
2022/05/25 05:53:15;;;;;;;24.80;10.05;;;;;;;;;;5133527;27;20476;-64
2022/05/25 05:55:42;;;;;;;52.25;12.77;;;;;;;;;;5127910;27;20555;-63
2022/05/25 05:58:09;;;;;;;28.48;10.25;;;;;;;;;;5134553;27;20142;-63
2022/05/25 06:00:36;;;;;;;33.33;11.85;;;;;;;;;;5133525;27;20443;-63
2022/05/25 06:03:03;;;;;;;35.88;11.73;;;;;;;;;;5133963;27;20412;-63
2022/05/25 06:05:30;;;;;;;29.40;10.43;;;;;;;;;;5134172;27;20462;-63
2022/05/25 06:07:56;;;;;;;46.50;12.65;;;;;;;;;;5131824;27;20409;-65
2022/05/25 06:10:23;;;;;;;35.20;11.52;;;;;;;;;;5133786;27;20047;-63
2022/05/25 06:12:50;;;;;;;23.45;10.68;;;;;;;;;;5134206;27;20443;-64
2022/05/25 06:20:47;;;;;;;41.97;12.27;;;;;;;;;;5133583;27;20062;-64
2022/05/25 06:23:14;;;;;;;35.50;12.27;;;;;;;;;;5133124;27;20092;-64
2022/05/25 06:25:40;;;;;;;33.45;12.82;;;;;;;;;;5133939;27;20067;-63
2022/05/25 06:28:07;;;;;;;30.27;12.77;;;;;;;;;;5133074;27;20039;-63
2022/05/25 06:30:33;;;;;;;52.30;13.75;;;;;;;;;;5132723;27;20128;-64
2022/05/25 06:33:00;;;;;;;37.38;14.15;;;;;;;;;;5133342;27;20145;-63
2022/05/25 06:35:26;;;;;;;54.03;15.20;;;;;;;;;;5133013;27;20107;-64
2022/05/25 06:37:53;;;;;;;55.28;15.65;;;;;;;;;;5133146;27;20039;-64
2022/05/25 06:40:19;;;;;;;33.53;13.88;;;;;;;;;;5134418;27;20042;-63
2022/05/25 06:42:46;;;;;;;39.40;15.75;;;;;;;;;;5133002;27;20043;-64
2022/05/25 06:45:13;;;;;;;47.13;15.93;;;;;;;;;;5133211;27;20080;-63
2022/05/25 06:47:39;;;;;;;40.25;15.55;;;;;;;;;;5132931;27;20113;-63
2022/05/25 06:50:06;;;;;;;31.50;14.18;;;;;;;;;;5133099;27;20589;-64
2022/05/25 06:52:33;;;;;;;60.05;28.33;;;;;;;;;;5133808;27;20047;-63
2022/05/25 06:54:59;;;;;;;52.22;16.67;;;;;;;;;;5132674;27;20138;-64
2022/05/25 06:57:26;;;;;;;52.15;16.05;;;;;;;;;;5133410;27;20505;-63
2022/05/25 06:59:53;;;;;;;48.20;16.50;;;;;;;;;;5132624;27;20035;-63
2022/05/25 07:02:19;;;;;;;39.67;16.58;;;;;;;;;;5133031;27;20084;-64
2022/05/25 07:04:46;;;;;;;52.17;18.48;;;;;;;;;;5132822;27;20031;-64
2022/05/25 07:07:12;;;;;;;47.75;16.73;;;;;;;;;;5133517;27;20047;-65
2022/05/25 07:09:39;;;;;;;41.58;16.75;;;;;;;;;;5131271;27;20051;-64
2022/05/25 07:12:07;;;;;;;41.90;14.80;;;;;;;;;;5132526;27;20126;-64
2022/05/25 07:14:34;;;;;;;56.58;18.27;;;;;;;;;;5132721;27;20108;-63
2022/05/25 07:17:01;;;;;;;37.03;15.52;;;;;;;;;;5132465;27;20041;-63
2022/05/25 07:19:28;;;;;;;28.35;14.80;;;;;;;;;;5133163;27;20037;-63
2022/05/25 07:21:55;;;;;;;49.72;16.40;;;;;;;;;;5132445;27;20039;-63
2022/05/25 07:24:21;;;;;;;44.30;15.85;;;;;;;;;;5132520;27;20035;-64
2022/05/25 07:26:48;;;;;;;45.33;16.13;;;;;;;;;;5132381;27;20114;-64
2022/05/25 07:29:15;;;;;;;35.60;16.42;;;;;;;;;;5132799;27;20031;-63
2022/05/25 07:31:42;;;;;;;35.95;15.15;;;;;;;;;;5132371;27;20031;-63
2022/05/25 07:34:17;;;;;;;31.05;15.65;;;;;;;;;;5132539;27;20053;-63
2022/05/25 07:36:46;;;;;;;49.20;16.50;;;;;;;;;;5132159;27;20088;-63
2022/05/25 07:39:14;;;;;;;42.72;16.40;;;;;;;;;;5132608;27;20041;-63
2022/05/25 07:41:43;;;;;;;27.55;12.88;;;;;;;;;;5132236;27;20400;-63
2022/05/25 07:44:13;;;;;;;42.03;15.00;;;;;;;;;;5118829;27;20856;-64
2022/05/25 07:46:39;;;;;;;42.00;15.35;;;;;;;;;;5131690;27;20508;-64
2022/05/25 07:49:06;;;;;;;39.78;14.57;;;;;;;;;;5132137;27;20050;-63
2022/05/25 07:51:33;;;;;;;49.70;16.63;;;;;;;;;;5127744;27;20096;-62
2022/05/25 07:54:00;;;;;;;41.08;16.63;;;;;;;;;;5123040;27;20107;-64
2022/05/25 07:56:29;;;;;;;39.08;15.80;;;;;;;;;;5132005;27;20126;-63
2022/05/25 07:59:08;;;;;;;51.05;17.77;;;;;;;;;;5132058;27;20078;-63
2022/05/25 08:07:09;;;;;;;39.38;16.23;;;;;;;;;;5131735;27;20100;-61
2022/05/25 08:09:36;;;;;;;35.67;15.07;;;;;;;;;;5131998;27;20063;-63
2022/05/25 08:12:04;;;;;;;52.00;17.52;;;;;;;;;;5131739;27;20043;-62
2022/05/25 08:14:31;;;;;;;58.92;18.17;;;;;;;;;;5131616;27;20039;-61
2022/05/25 08:16:57;;;;;;;47.60;16.33;;;;;;;;;;5131494;27;20063;-62
2022/05/25 08:19:24;;;;;;;36.75;15.77;;;;;;;;;;5132337;27;20058;-61
2022/05/25 08:21:52;;;;;;;67.20;16.77;;;;;;;;;;5131487;27;20058;-62
2022/05/25 08:24:18;;;;;;;56.92;17.42;;;;;;;;;;5131597;27;20438;-62
2022/05/25 08:26:45;;;;;;;38.80;16.65;;;;;;;;;;5131748;27;20027;-63
2022/05/25 08:29:12;;;;;;;40.60;16.45;;;;;;;;;;5131386;27;20134;-63
2022/05/25 08:31:38;;;;;;;42.00;15.02;;;;;;;;;;5131165;28;20505;-62
2022/05/25 08:34:05;;;;;;;233.00;156.77;;;;;;;;;;5131757;27;20118;-63
2022/05/25 08:36:32;;;;;;;50.53;19.08;;;;;;;;;;5130869;27;20036;-62
2022/05/25 08:38:59;;;;;;;37.90;16.02;;;;;;;;;;5131357;27;20492;-62
2022/05/25 08:41:34;;;;;;;42.88;17.02;;;;;;;;;;5131392;27;20481;-62
2022/05/25 08:44:02;;;;;;;52.22;17.85;;;;;;;;;;5118302;27;20473;-62
2022/05/25 08:46:29;;;;;;;48.08;17.67;;;;;;;;;;5132576;27;20047;-62
2022/05/25 08:48:56;;;;;;;35.22;16.98;;;;;;;;;;5135515;27;20043;-63
2022/05/25 08:51:39;;;;;;;56.75;18.30;;;;;;;;;;5131276;27;20552;-63
2022/05/25 08:54:06;;;;;;;40.08;16.95;;;;;;;;;;5127316;27;20043;-64
2022/05/25 08:56:39;;;;;;;50.67;18.98;;;;;;;;;;5134202;27;20125;-63
2022/05/25 08:59:07;;;;;;;56.45;18.65;;;;;;;;;;5135518;27;20053;-62
2022/05/25 09:01:37;;;;;;;42.60;17.65;;;;;;;;;;5135879;27;20100;-63
2022/05/25 09:04:19;;;;;;;44.15;17.52;;;;;;;;;;5135333;27;20058;-62
2022/05/25 09:06:50;;;;;;;45.72;18.38;;;;;;;;;;5135068;27;20089;-62
2022/05/25 09:09:16;;;;;;;74.38;21.05;;;;;;;;;;5135078;27;20080;-63
2022/05/25 09:11:48;;;;;;;49.20;18.77;;;;;;;;;;5135270;27;20099;-63
2022/05/25 09:14:23;;;;;;;44.88;18.75;;;;;;;;;;5135097;27;20498;-62
2022/05/25 09:16:51;;;;;;;50.30;18.08;;;;;;;;;;5134493;27;20050;-62
2022/05/25 09:19:38;;;;;;;40.70;17.48;;;;;;;;;;5135793;27;20038;-63
2022/05/25 09:22:06;;;;;;;73.22;25.60;;;;;;;;;;5134941;27;20090;-63
2022/05/25 09:24:33;;;;;;;44.30;17.63;;;;;;;;;;5135171;27;20039;-63
2022/05/25 09:27:02;;;;;;;56.60;19.65;;;;;;;;;;5134700;27;20043;-62
2022/05/25 09:29:29;;;;;;;52.47;18.58;;;;;;;;;;5134517;27;20039;-62
2022/05/25 09:32:01;;;;;;;59.67;18.58;;;;;;;;;;5134431;27;20417;-62
2022/05/25 09:34:32;;;;;;;50.08;17.67;;;;;;;;;;5135280;27;20118;-63
2022/05/25 09:37:06;;;;;;;54.67;18.27;;;;;;;;;;5134451;27;20070;-63
2022/05/25 09:39:33;;;;;;;51.78;18.90;;;;;;;;;;5134711;27;20125;-62
2022/05/25 09:42:03;;;;;;;103.38;26.77;;;;;;;;;;5128089;27;20045;-63
2022/05/25 09:44:29;;;;;;;50.78;18.52;;;;;;;;;;5134180;27;20027;-63
2022/05/25 09:47:01;;;;;;;57.08;21.98;;;;;;;;;;5133703;27;20050;-62
2022/05/25 09:49:47;;;;;;;47.08;20.15;;;;;;;;;;5135135;27;20034;-62
2022/05/25 09:52:22;;;;;;;70.18;21.83;;;;;;;;;;5134537;27;20468;-62
2022/05/25 09:55:01;;;;;;;67.80;23.85;;;;;;;;;;5133639;27;20051;-62
2022/05/25 09:57:38;;;;;;;65.47;25.42;;;;;;;;;;5133072;27;20390;-63
2022/05/25 10:00:09;;;;;;;78.85;30.73;;;;;;;;;;5131921;27;20139;-63
2022/05/25 10:02:47;;;;;;;81.50;37.97;;;;;;;;;;5134250;27;20035;-62
2022/05/25 10:05:19;;;;;;;93.22;30.65;;;;;;;;;;5134421;27;20037;-63
2022/05/25 10:07:51;;;;;;;69.82;28.55;;;;;;;;;;5134357;27;20130;-63
2022/05/25 10:10:23;;;;;;;79.20;31.25;;;;;;;;;;5134036;27;20405;-62
2022/05/25 10:12:57;;;;;;;82.45;34.03;;;;;;;;;;5133420;27;20049;-62
2022/05/25 10:15:36;;;;;;;84.47;32.40;;;;;;;;;;5133246;27;20070;-62
2022/05/25 10:18:04;;;;;;;67.78;32.30;;;;;;;;;;5133677;27;20091;-62
2022/05/25 10:20:34;;;;;;;99.80;34.97;;;;;;;;;;5133987;27;20041;-62
2022/05/25 10:23:00;;;;;;;142.52;42.80;;;;;;;;;;5133572;27;20035;-62
2022/05/25 10:25:27;;;;;;;87.32;38.78;;;;;;;;;;5134746;27;20118;-62
2022/05/25 10:27:53;;;;;;;81.35;37.60;;;;;;;;;;5133273;27;20043;-61
2022/05/25 10:39:12;;;;;;;81.00;39.45;;;;;;;;;;5133179;27;20097;-61
2022/05/25 10:41:40;;;;;;;99.90;43.17;;;;;;;;;;5133105;27;20555;-62
2022/05/25 10:44:10;;;;;;;84.57;39.70;;;;;;;;;;5133171;27;20055;-62
2022/05/25 10:46:39;;;;;;;81.22;38.85;;;;;;;;;;5127916;27;20088;-62
2022/05/25 10:49:18;;;;;;;84.95;36.92;;;;;;;;;;5133091;27;20039;-62
2022/05/25 10:51:55;;;;;;;66.93;36.60;;;;;;;;;;5133327;27;20167;-62
2022/05/25 10:54:46;;;;;;;70.38;34.15;;;;;;;;;;5132807;27;20061;-62
2022/05/25 10:57:19;;;;;;;78.47;36.42;;;;;;;;;;5132675;27;20446;-62
2022/05/25 10:59:45;;;;;;;71.70;29.88;;;;;;;;;;5130947;27;20043;-62
2022/05/25 11:02:15;;;;;;;71.32;29.02;;;;;;;;;;5130888;27;20038;-62
2022/05/25 11:04:53;;;;;;;75.03;28.23;;;;;;;;;;5130966;27;20432;-61
2022/05/25 11:07:20;;;;;;;50.30;24.42;;;;;;;;;;5131714;27;20158;-62
2022/05/25 11:09:55;;;;;;;62.42;26.17;;;;;;;;;;5130348;27;20039;-61
2022/05/25 11:12:22;;;;;;;56.60;22.33;;;;;;;;;;5130733;27;20159;-62
2022/05/25 11:14:58;;;;;;;45.90;21.63;;;;;;;;;;5132436;27;20084;-62
2022/05/25 11:17:30;;;;;;;53.75;20.40;;;;;;;;;;5132453;27;20060;-62
2022/05/25 11:20:23;;;;;;;39.42;17.20;;;;;;;;;;5132772;27;20047;-62
2022/05/25 11:23:02;;;;;;;42.47;18.13;;;;;;;;;;5132517;27;20495;-62
2022/05/25 11:25:37;;;;;;;55.60;19.48;;;;;;;;;;5132936;27;20408;-62
2022/05/25 11:28:19;;;;;;;45.70;18.15;;;;;;;;;;5132260;27;20070;-61
2022/05/25 11:30:54;;;;;;;42.28;18.75;;;;;;;;;;5132089;27;20043;-61
2022/05/25 11:33:26;;;;;;;50.50;18.08;;;;;;;;;;5132424;27;20114;-62
2022/05/25 11:36:25;;;;;;;34.45;16.40;;;;;;;;;;5130533;27;20399;-62
2022/05/25 11:38:55;;;;;;;46.53;16.80;;;;;;;;;;5121654;27;20122;-61
2022/05/25 11:41:28;;;;;;;34.35;14.60;;;;;;;;;;5131732;27;20035;-61
2022/05/25 11:44:09;;;;;;;56.20;15.90;;;;;;;;;;5131616;27;20043;-62
2022/05/25 11:46:35;;;;;;;47.58;14.50;;;;;;;;;;5119659;27;20449;-62
2022/05/25 11:49:25;;;;;;;39.28;13.52;;;;;;;;;;5130886;27;20594;-62
2022/05/25 11:51:57;;;;;;;31.40;13.55;;;;;;;;;;5132139;27;20423;-62
2022/05/25 11:54:42;;;;;;;47.53;14.30;;;;;;;;;;5128470;27;20092;-62
2022/05/25 11:57:27;;;;;;;44.97;13.02;;;;;;;;;;5132014;27;20051;-62
2022/05/25 11:59:55;;;;;;;46.25;13.02;;;;;;;;;;5131675;27;20092;-62
2022/05/25 12:02:26;;;;;;;33.58;12.38;;;;;;;;;;5132007;27;20114;-62
2022/05/25 12:05:08;;;;;;;38.00;12.80;;;;;;;;;;5131835;27;20039;-61
2022/05/25 12:07:53;;;;;;;45.80;16.23;;;;;;;;;;5132368;27;20393;-62
2022/05/25 12:10:25;;;;;;;30.17;12.00;;;;;;;;;;5132385;27;20071;-62
2022/05/25 12:13:11;;;;;;;27.08;11.82;;;;;;;;;;5131538;27;20079;-62
2022/05/25 12:15:58;;;;;;;31.38;11.20;;;;;;;;;;5131482;27;20404;-62
2022/05/25 12:18:38;;;;;;;42.28;12.25;;;;;;;;;;5131288;27;20074;-63
2022/05/25 12:21:08;;;;;;;32.97;10.95;;;;;;;;;;5130957;27;20404;-62
2022/05/25 12:23:40;;;;;;;48.85;13.05;;;;;;;;;;5131441;27;20051;-62
2022/05/25 12:26:12;;;;;;;37.00;11.27;;;;;;;;;;5131879;27;20059;-63
2022/05/25 12:28:39;;;;;;;21.77;9.45;;;;;;;;;;5128326;28;20047;-62
2022/05/25 12:31:12;;;;;;;41.60;12.38;;;;;;;;;;5131561;28;20055;-63
2022/05/25 12:33:40;;;;;;;28.80;12.03;;;;;;;;;;5129087;27;20043;-62
2022/05/25 12:36:08;;;;;;;27.08;11.27;;;;;;;;;;5125850;27;20062;-63
2022/05/25 12:38:35;;;;;;;28.60;12.57;;;;;;;;;;5118184;28;20050;-63
2022/05/25 12:41:27;;;;;;;38.67;13.05;;;;;;;;;;5131320;27;20047;-63
2022/05/25 12:43:56;;;;;;;47.80;13.65;;;;;;;;;;5108625;28;20059;-63
2022/05/25 12:49:32;;;;;;;26.00;9.00;;;;;;;;;;5127673;28;20055;-63
2022/05/25 12:51:59;;;;;;;71.10;29.27;;;;;;;;;;5129946;28;20045;-62
2022/05/25 12:54:31;;;;;;;28.42;7.38;;;;;;;;;;5128920;27;20052;-64
2022/05/25 12:57:01;;;;;;;29.60;8.25;;;;;;;;;;5130001;27;20067;-64
2022/05/25 12:59:31;;;;;;;42.60;10.55;;;;;;;;;;5129527;27;20153;-64
2022/05/25 13:02:12;;;;;;;44.65;11.20;;;;;;;;;;5129217;27;20040;-63
2022/05/25 13:04:42;;;;;;;39.63;11.65;;;;;;;;;;5126147;28;20039;-63
2022/05/25 13:07:20;;;;;;;33.92;11.88;;;;;;;;;;5130107;28;20063;-63
2022/05/25 13:09:47;;;;;;;39.30;13.40;;;;;;;;;;5131094;27;20114;-63
2022/05/25 13:12:33;;;;;;;41.50;15.30;;;;;;;;;;5130839;28;20062;-64
2022/05/25 13:14:59;;;;;;;47.80;15.65;;;;;;;;;;5130536;27;20054;-63
2022/05/25 13:17:45;;;;;;;45.55;13.35;;;;;;;;;;5130500;27;20046;-62
2022/05/25 13:20:46;;;;;;;32.58;9.88;;;;;;;;;;5130813;27;20043;-62
2022/05/25 13:23:32;;;;;;;35.25;10.82;;;;;;;;;;5083186;28;20491;-61
2022/05/25 13:26:02;;;;;;;41.45;8.45;;;;;;;;;;5085497;28;20098;-60
2022/05/25 13:28:28;;;;;;;32.42;7.40;;;;;;;;;;5086212;28;20052;-60
2022/05/25 13:31:03;;;;;;;44.22;9.15;;;;;;;;;;5082974;28;20048;-60
2022/05/25 13:33:41;;;;;;;23.00;5.72;;;;;;;;;;5085247;28;20051;-59
2022/05/25 13:36:19;;;;;;;42.80;7.82;;;;;;;;;;5086395;28;20063;-59
2022/05/25 13:38:55;;;;;;;58.95;8.48;;;;;;;;;;5086708;28;20524;-59
2022/05/25 13:41:32;;;;;;;37.17;7.25;;;;;;;;;;5081709;28;20049;-59
2022/05/25 13:43:59;;;;;;;42.65;8.55;;;;;;;;;;5082676;28;20059;-59
2022/05/25 13:46:30;;;;;;;42.22;9.15;;;;;;;;;;5085164;28;20052;-59
2022/05/25 13:48:57;;;;;;;38.63;10.18;;;;;;;;;;5079987;28;20117;-59
2022/05/25 13:51:24;;;;;;;42.10;9.23;;;;;;;;;;5078915;28;20054;-60
2022/05/25 13:53:51;;;;;;;29.95;8.90;;;;;;;;;;5081972;28;20086;-60
2022/05/25 13:56:20;;;;;;;46.28;8.85;;;;;;;;;;5086335;28;20051;-60
2022/05/25 13:58:48;;;;;;;54.63;10.45;;;;;;;;;;5088612;28;20068;-59
2022/05/25 14:01:19;;;;;;;32.53;7.22;;;;;;;;;;5130480;27;20516;-59
2022/05/25 14:03:51;;;;;;;89.80;47.30;;;;;;;;;;5133000;27;20055;-59
2022/05/25 14:06:18;;;;;;;50.97;16.52;;;;;;;;;;5132480;27;20039;-59
2022/05/25 14:11:37;;;;;;;45.00;10.90;;;;;;;;;;5132828;27;20035;-59
2022/05/25 14:14:16;;;;;;;56.55;14.40;;;;;;;;;;5132966;27;20138;-59
2022/05/25 14:16:47;;;;;;;44.45;11.23;;;;;;;;;;5128950;27;20039;-59
2022/05/25 14:19:19;;;;;;;51.00;12.93;;;;;;;;;;5133248;27;20050;-59
2022/05/25 14:21:49;;;;;;;48.92;12.95;;;;;;;;;;5132594;27;20488;-60
2022/05/25 14:24:17;;;;;;;37.70;9.90;;;;;;;;;;5132407;27;20046;-60
2022/05/25 14:26:52;;;;;;;61.83;11.57;;;;;;;;;;5132796;27;20031;-62
2022/05/25 14:29:23;;;;;;;37.20;9.38;;;;;;;;;;5132276;27;20512;-62
2022/05/25 14:31:51;;;;;;;59.20;13.00;;;;;;;;;;5132215;27;20536;-62
2022/05/25 14:34:19;;;;;;;35.17;9.15;;;;;;;;;;5132608;27;20031;-60
2022/05/25 14:36:47;;;;;;;34.05;8.63;;;;;;;;;;5132632;27;20039;-61
2022/05/25 14:39:15;;;;;;;55.08;12.73;;;;;;;;;;5132133;27;20475;-60
2022/05/25 14:41:50;;;;;;;32.20;8.80;;;;;;;;;;5132371;27;20039;-60
2022/05/25 14:44:50;;;;;;;40.10;9.38;;;;;;;;;;5131110;27;20096;-60
2022/05/25 14:47:18;;;;;;;52.67;11.32;;;;;;;;;;5047831;28;20111;-61
2022/05/25 14:49:50;;;;;;;76.28;17.38;;;;;;;;;;5028591;28;20057;-63
2022/05/25 14:52:17;;;;;;;62.78;13.27;;;;;;;;;;5032311;28;20162;-63
2022/05/25 14:54:45;;;;;;;35.22;10.25;;;;;;;;;;5032638;28;20534;-63
2022/05/25 14:57:11;;;;;;;72.25;16.60;;;;;;;;;;5032730;28;20049;-63
2022/05/25 14:59:42;;;;;;;50.00;14.27;;;;;;;;;;5033459;28;20053;-62
2022/05/25 15:02:21;;;;;;;49.95;14.60;;;;;;;;;;5031981;28;20045;-62
2022/05/25 15:04:48;;;;;;;64.43;13.70;;;;;;;;;;5045034;28;20072;-63
2022/05/25 15:07:21;;;;;;;37.55;11.38;;;;;;;;;;5032855;28;20574;-63
2022/05/25 15:09:48;;;;;;;;;;;;;;;;;;5032956;28;20173;-63